• Join FlightAware (Why Join?)
  • Login
  • US Flag 
04:49PM EDT


 

Airport Tracker/Info


-or-


 

Live Flight TrackerFlight Track Log ✈ SWA267 ✈ 22-Apr-2013 ✈ KBWI - KMHT

Flight Track Log - Related Links

Times and Time Zones

All times are in EDT time to prevent confusion due to time zone crossing. See the SWA267 flight status page for this flight to view local times or setup timezone preferences in your user account.

Time Position Orientation Groundspeed Altitude Reporting Facility
EDT Latitude Longitude Course Direction KTS MPH feet Rate Location/Type
02:08PM 39.1333 -76.6333 143° Southeast 185 213 2,000  Level Potomac TRACON
02:09PM 39.0636 -76.5647 143° Southeast 216 249 5,900 2,580 Climbing Washington Center
02:10PM 39.0872 -76.4686 72° East 216 249 8,600 2,640 Climbing Washington Center
02:11PM 39.1153 -76.3647 71° East 241 277 11,200 2,400 Climbing Washington Center
02:12PM 39.1431 -76.2447 73° East 310 357 13,500 2,400 Climbing Washington Center
02:13PM 39.1664 -76.1136 77° East 342 394 16,000 2,340 Climbing Washington Center
02:14PM 39.1817 -75.9744 82° East 373 429 18,200 1,740 Climbing Washington Center
02:15PM 39.2217 -75.8408 69° East 385 443 19,500 1,440 Climbing Washington Center
02:16PM 39.3050 -75.7364 44° Northeast 390 449 21,100 1,680 Climbing Washington Center
02:17PM 39.3928 -75.6239 45° Northeast 410 472 22,900 900 Climbing Washington Center
02:18PM 39.4803 -75.5081 46° Northeast 432 497 22,900  Level Washington Center
02:19PM 39.5697 -75.3897 46° Northeast 446 513 22,900  Level Washington Center
02:21PM 39.7469 -75.1447 47° Northeast 466 536 23,000  Climbing New York Center
02:22PM 39.8347 -75.0231 47° Northeast 460 529 23,000  Level New York Center
02:23PM 39.9181 -74.9039 48° Northeast 452 520 23,000  Level New York Center
02:24PM 40.0036 -74.7814 48° Northeast 452 520 23,000  Level New York Center
02:25PM 40.0803 -74.6747 47° Northeast 452 520 23,000  Level New York Center
02:26PM 40.1722 -74.5386 48° Northeast 452 520 23,000  Level New York Center
02:27PM 40.2567 -74.4372 42° Northeast 447 514 23,000 -60 Level New York Center
02:28PM 40.3514 -74.3358 39° Northeast 447 514 22,900  Descending New York Center
02:29PM 40.4483 -74.2319 39° Northeast 442 509 23,000 -420 Climbing New York Center
02:30PM 40.5431 -74.1303 39° Northeast 437 503 22,100 -1,080 Descending New York Center
02:31PM 40.6156 -73.9997 54° Northeast 430 495 20,900 -480 Descending New York Center
02:33PM 40.7108 -73.7625 62° Northeast 436 502 20,900  Level Boston Center
02:34PM 40.7744 -73.6569 51° Northeast 426 490 20,900  Level Boston Center
02:35PM 40.8850 -73.6644 357° North 360 414 20,900  Level Boston Center
02:36PM 41.0306 -73.6839 354° North 377 434 21,000  Climbing Boston Center
02:37PM 41.1450 -73.6886 358° North 389 448 21,000 -60 Level Boston Center
02:38PM 41.2556 -73.6964 357° North 389 448 20,900  Descending Boston Center
02:39PM 41.3658 -73.7014 358° North 396 456 21,000 -480 Climbing Boston Center
02:40PM 41.4764 -73.7036 359° North 401 461 20,000 -960 Descending Boston Center
02:41PM 41.5689 -73.6306 31° Northeast 379 436 19,100 -960 Descending Boston Center
02:42PM 41.6553 -73.5347 40° Northeast 379 436 18,100 -660 Descending Boston Center
02:43PM 41.7331 -73.4500 39° Northeast 392 451 17,800 -600 Descending Boston Center
02:44PM 41.8278 -73.3511 38° Northeast 398 458 17,000 -420 Descending Boston Center
02:45PM 41.9139 -73.2603 38° Northeast 398 458 17,000  Level Boston Center
02:46PM 41.9981 -73.1664 40° Northeast 398 458 17,000 -360 Level Boston Center
02:47PM 42.0861 -73.0722 38° Northeast 398 458 16,300 -840 Descending Boston Center
02:48PM 42.1636 -72.9864 39° Northeast 398 458 15,400 -660 Descending Boston Center
02:49PM 42.2558 -72.8861 39° Northeast 393 452 15,000 -240 Descending Boston Center
02:50PM 42.3186 -72.8164 39° Northeast 388 447 15,000  Level Boston Center
02:51PM 42.4125 -72.7128 39° Northeast 363 418 15,000 -120 Level Boston Center
02:52PM 42.4711 -72.6231 48° Northeast 356 410 14,800 -60 Descending Boston Center
02:53PM 42.5253 -72.5189 55° Northeast 344 396 14,900  Climbing Boston Center
02:54PM 42.5797 -72.4092 56° Northeast 344 396 14,900 -300 Level Boston Center
02:55PM 42.6358 -72.2989 55° Northeast 344 396 14,400 -1,140 Descending Boston Center
02:56PM 42.6836 -72.2000 57° Northeast 350 403 12,700 -2,040 Descending Boston Center
02:57PM 42.7458 -72.0753 56° Northeast 345 397 10,400 -1,560 Descending Boston Center
02:58PM 42.7767 -71.9875 64° Northeast 311 358 9,600 -1,200 Descending Boston Center
02:59PM 42.7783 -71.8744 89° East 267 307 8,100 -1,500 Descending Boston Center
03:00PM 42.8008 -71.7864 71° East 267 307 6,700 -1,380 Descending Boston Center
03:01PM 42.8250 -71.6842 72° East 262 302 5,400 -780 Descending Boston Center
03:02PM 42.8433 -71.6133 71° East 231 266 5,200 -840 Descending Boston Center
03:03PM 42.8617 -71.5478 69° East 177 204 3,800 -1,620 Descending Boston Center
03:04PM 42.8822 -71.5078 55° Northeast 148 170 2,000 -1,560 Descending Boston Center
03:05PM 42.9131 -71.4678 44° Northeast 136 157 700 6,480 Descending Boston Center
03:06PM 42.9400 -71.4306 45° Northeast 136 157 15,000 7,140 Climbing Boston Center
03:07PM 42.9644 -71.3958 46° Northeast 136 157 15,000  Level Boston Center
03:08PM 42.9914 -71.3586 45° Northeast 136 157 15,000  Level Boston Center
03:09PM 43.0161 -71.3242 46° Northeast 136 157 15,000  Level Boston Center
03:10PM 43.0264 -71.3097 46° Northeast 136 157 15,000  Level Boston Center
03:12PM 42.9328 -71.4358 225° Southwest  Level Estimated
03:19PM 42.9328 -71.4358 180° South  Level Estimated
03:20PM 42.9328 -71.4358 180° South  Level Estimated
03:21PM 42.9328 -71.4358 180° South  Level Estimated
03:22PM 42.9328 -71.4358 180° South  Level Estimated
03:23PM 42.9328 -71.4358 180° South  Level Estimated